sensor_id;sensor_type;location;lat;lon;timestamp;pressure;altitude;pressure_sealevel;temperature;humidity
42771;BME280;28426;42.872;25.314;2024-02-21T00:01:15;97655.84;;;0.54;100.00
42771;BME280;28426;42.872;25.314;2024-02-21T00:03:47;97658.13;;;0.58;100.00
42771;BME280;28426;42.872;25.314;2024-02-21T00:06:18;97654.13;;;0.65;100.00
42771;BME280;28426;42.872;25.314;2024-02-21T00:08:48;97649.88;;;0.76;100.00
42771;BME280;28426;42.872;25.314;2024-02-21T00:11:19;97643.97;;;0.85;100.00
42771;BME280;28426;42.872;25.314;2024-02-21T00:13:53;97647.75;;;0.94;100.00
42771;BME280;28426;42.872;25.314;2024-02-21T00:16:23;97645.22;;;0.93;100.00
42771;BME280;28426;42.872;25.314;2024-02-21T00:18:54;97646.59;;;0.85;100.00
42771;BME280;28426;42.872;25.314;2024-02-21T00:21:24;97643.81;;;0.75;100.00
42771;BME280;28426;42.872;25.314;2024-02-21T00:23:55;97641.72;;;0.68;100.00
42771;BME280;28426;42.872;25.314;2024-02-21T00:26:25;97645.63;;;0.62;100.00
42771;BME280;28426;42.872;25.314;2024-02-21T00:28:59;97646.56;;;0.61;100.00
42771;BME280;28426;42.872;25.314;2024-02-21T00:31:33;97637.84;;;0.60;100.00
42771;BME280;28426;42.872;25.314;2024-02-21T00:34:04;97639.31;;;0.64;100.00
42771;BME280;28426;42.872;25.314;2024-02-21T00:36:34;97643.91;;;0.74;100.00
42771;BME280;28426;42.872;25.314;2024-02-21T00:39:05;97635.25;;;0.85;100.00
42771;BME280;28426;42.872;25.314;2024-02-21T00:41:35;97627.78;;;0.91;100.00
42771;BME280;28426;42.872;25.314;2024-02-21T00:44:08;97628.22;;;0.85;100.00
42771;BME280;28426;42.872;25.314;2024-02-21T00:46:39;97641.97;;;0.89;100.00
42771;BME280;28426;42.872;25.314;2024-02-21T00:49:10;97638.97;;;0.82;100.00
42771;BME280;28426;42.872;25.314;2024-02-21T00:51:40;97637.69;;;0.75;100.00
42771;BME280;28426;42.872;25.314;2024-02-21T00:54:11;97629.03;;;0.61;100.00
42771;BME280;28426;42.872;25.314;2024-02-21T00:56:42;97623.06;;;0.59;100.00
42771;BME280;28426;42.872;25.314;2024-02-21T00:59:16;97620.81;;;0.66;100.00
42771;BME280;28426;42.872;25.314;2024-02-21T01:01:46;97624.25;;;0.80;100.00
42771;BME280;28426;42.872;25.314;2024-02-21T01:04:17;97616.22;;;0.94;100.00
42771;BME280;28426;42.872;25.314;2024-02-21T01:06:48;97619.41;;;1.11;100.00
42771;BME280;28426;42.872;25.314;2024-02-21T01:09:18;97617.41;;;1.26;100.00
42771;BME280;28426;42.872;25.314;2024-02-21T01:11:49;97620.59;;;1.42;100.00
42771;BME280;28426;42.872;25.314;2024-02-21T01:14:22;97612.50;;;1.57;100.00
42771;BME280;28426;42.872;25.314;2024-02-21T01:16:53;97618.50;;;1.70;100.00
42771;BME280;28426;42.872;25.314;2024-02-21T01:19:23;97611.47;;;1.82;100.00
42771;BME280;28426;42.872;25.314;2024-02-21T01:21:54;97615.00;;;1.94;100.00
42771;BME280;28426;42.872;25.314;2024-02-21T01:24:24;97615.94;;;2.05;100.00
42771;BME280;28426;42.872;25.314;2024-02-21T01:26:55;97618.72;;;2.15;100.00
42771;BME280;28426;42.872;25.314;2024-02-21T01:29:28;97607.56;;;2.22;100.00
42771;BME280;28426;42.872;25.314;2024-02-21T01:31:59;97608.75;;;2.30;100.00
42771;BME280;28426;42.872;25.314;2024-02-21T01:34:29;97606.38;;;2.38;100.00
42771;BME280;28426;42.872;25.314;2024-02-21T01:37:00;97611.16;;;2.44;100.00
42771;BME280;28426;42.872;25.314;2024-02-21T01:39:31;97606.38;;;2.50;100.00
42771;BME280;28426;42.872;25.314;2024-02-21T01:42:03;97607.81;;;2.54;100.00
42771;BME280;28426;42.872;25.314;2024-02-21T01:44:36;97604.91;;;2.57;100.00
42771;BME280;28426;42.872;25.314;2024-02-21T01:47:07;97604.44;;;2.63;100.00
42771;BME280;28426;42.872;25.314;2024-02-21T01:49:38;97603.34;;;2.66;100.00
42771;BME280;28426;42.872;25.314;2024-02-21T01:52:09;97603.81;;;2.71;100.00
42771;BME280;28426;42.872;25.314;2024-02-21T01:54:41;97593.97;;;2.73;100.00
42771;BME280;28426;42.872;25.314;2024-02-21T01:57:12;97598.03;;;2.77;100.00
42771;BME280;28426;42.872;25.314;2024-02-21T01:59:45;97597.91;;;2.79;100.00
42771;BME280;28426;42.872;25.314;2024-02-21T02:02:16;97591.56;;;2.81;100.00
42771;BME280;28426;42.872;25.314;2024-02-21T02:04:48;97590.47;;;2.84;100.00
42771;BME280;28426;42.872;25.314;2024-02-21T02:07:19;97592.03;;;2.86;100.00
42771;BME280;28426;42.872;25.314;2024-02-21T02:09:50;97585.81;;;2.87;100.00
42771;BME280;28426;42.872;25.314;2024-02-21T02:12:20;97579.69;;;2.87;100.00
42771;BME280;28426;42.872;25.314;2024-02-21T02:15:00;97583.88;;;2.90;100.00
42771;BME280;28426;42.872;25.314;2024-02-21T02:17:32;97575.84;;;2.91;100.00
42771;BME280;28426;42.872;25.314;2024-02-21T02:20:03;97580.03;;;2.94;100.00
42771;BME280;28426;42.872;25.314;2024-02-21T02:22:35;97577.28;;;2.95;100.00
42771;BME280;28426;42.872;25.314;2024-02-21T02:25:10;97578.81;;;2.98;100.00
42771;BME280;28426;42.872;25.314;2024-02-21T02:27:44;97582.03;;;3.01;100.00
42771;BME280;28426;42.872;25.314;2024-02-21T02:30:14;97582.88;;;3.02;100.00
42771;BME280;28426;42.872;25.314;2024-02-21T02:32:45;97578.31;;;3.04;100.00
42771;BME280;28426;42.872;25.314;2024-02-21T02:35:16;97591.25;;;3.07;100.00
42771;BME280;28426;42.872;25.314;2024-02-21T02:37:49;97585.00;;;3.08;100.00
42771;BME280;28426;42.872;25.314;2024-02-21T02:40:23;97577.50;;;3.04;100.00
42771;BME280;28426;42.872;25.314;2024-02-21T02:42:53;97584.78;;;3.11;100.00
42771;BME280;28426;42.872;25.314;2024-02-21T02:45:25;97582.97;;;3.12;100.00
42771;BME280;28426;42.872;25.314;2024-02-21T02:47:56;97595.19;;;3.13;100.00
42771;BME280;28426;42.872;25.314;2024-02-21T02:50:27;97579.84;;;3.07;100.00
42771;BME280;28426;42.872;25.314;2024-02-21T02:52:58;97590.91;;;3.12;100.00
42771;BME280;28426;42.872;25.314;2024-02-21T02:55:31;97583.78;;;3.12;100.00
42771;BME280;28426;42.872;25.314;2024-02-21T02:58:03;97596.16;;;3.12;100.00
42771;BME280;28426;42.872;25.314;2024-02-21T03:00:33;97591.84;;;3.11;100.00
42771;BME280;28426;42.872;25.314;2024-02-21T03:03:04;97594.63;;;3.09;100.00
42771;BME280;28426;42.872;25.314;2024-02-21T03:05:36;97595.69;;;3.07;100.00
42771;BME280;28426;42.872;25.314;2024-02-21T03:08:06;97597.63;;;3.05;100.00
42771;BME280;28426;42.872;25.314;2024-02-21T03:10:40;97604.84;;;3.03;99.70
42771;BME280;28426;42.872;25.314;2024-02-21T03:13:11;97597.84;;;3.01;99.91
42771;BME280;28426;42.872;25.314;2024-02-21T03:15:41;97599.78;;;2.99;99.59
42771;BME280;28426;42.872;25.314;2024-02-21T03:18:12;97602.44;;;2.99;99.64
42771;BME280;28426;42.872;25.314;2024-02-21T03:20:43;97599.06;;;2.97;99.75
42771;BME280;28426;42.872;25.314;2024-02-21T03:23:14;97599.91;;;2.98;99.46
42771;BME280;28426;42.872;25.314;2024-02-21T03:25:47;97596.44;;;2.97;99.54
42771;BME280;28426;42.872;25.314;2024-02-21T03:28:17;97602.66;;;2.96;99.22
42771;BME280;28426;42.872;25.314;2024-02-21T03:30:48;97598.38;;;2.95;99.23
42771;BME280;28426;42.872;25.314;2024-02-21T03:33:18;97601.13;;;2.94;99.32
42771;BME280;28426;42.872;25.314;2024-02-21T03:35:51;97601.25;;;2.92;98.94
42771;BME280;28426;42.872;25.314;2024-02-21T03:38:21;97590.97;;;2.89;99.02
42771;BME280;28426;42.872;25.314;2024-02-21T03:40:54;97597.06;;;2.90;98.89
42771;BME280;28426;42.872;25.314;2024-02-21T03:43:25;97593.00;;;2.85;98.55
42771;BME280;28426;42.872;25.314;2024-02-21T03:45:56;97607.13;;;2.84;98.91
42771;BME280;28426;42.872;25.314;2024-02-21T03:48:26;97603.81;;;2.82;98.67
42771;BME280;28426;42.872;25.314;2024-02-21T03:50:57;97602.09;;;2.81;98.69
42771;BME280;28426;42.872;25.314;2024-02-21T03:53:28;97603.19;;;2.79;98.36
42771;BME280;28426;42.872;25.314;2024-02-21T03:56:04;97606.78;;;2.78;98.51
42771;BME280;28426;42.872;25.314;2024-02-21T03:58:34;97605.38;;;2.73;98.21
42771;BME280;28426;42.872;25.314;2024-02-21T04:01:05;97602.97;;;2.70;98.29
42771;BME280;28426;42.872;25.314;2024-02-21T04:03:36;97609.31;;;2.68;98.20
42771;BME280;28426;42.872;25.314;2024-02-21T04:06:06;97604.19;;;2.66;98.04
42771;BME280;28426;42.872;25.314;2024-02-21T04:08:37;97602.50;;;2.65;98.13
42771;BME280;28426;42.872;25.314;2024-02-21T04:11:10;97607.88;;;2.64;98.03
42771;BME280;28426;42.872;25.314;2024-02-21T04:13:41;97604.44;;;2.63;98.01
42771;BME280;28426;42.872;25.314;2024-02-21T04:16:12;97603.69;;;2.61;97.88
42771;BME280;28426;42.872;25.314;2024-02-21T04:18:43;97608.97;;;2.61;98.10
42771;BME280;28426;42.872;25.314;2024-02-21T04:21:14;97604.78;;;2.58;98.08
42771;BME280;28426;42.872;25.314;2024-02-21T04:23:45;97596.88;;;2.58;98.03
42771;BME280;28426;42.872;25.314;2024-02-21T04:26:18;97598.69;;;2.58;97.97
42771;BME280;28426;42.872;25.314;2024-02-21T04:28:52;97603.13;;;2.57;98.07
42771;BME280;28426;42.872;25.314;2024-02-21T04:31:23;97597.16;;;2.55;97.75
42771;BME280;28426;42.872;25.314;2024-02-21T04:33:53;97594.38;;;2.57;98.09
42771;BME280;28426;42.872;25.314;2024-02-21T04:36:24;97603.00;;;2.59;98.40
42771;BME280;28426;42.872;25.314;2024-02-21T04:38:55;97605.63;;;2.59;98.25
42771;BME280;28426;42.872;25.314;2024-02-21T04:41:28;97603.69;;;2.61;98.18
42771;BME280;28426;42.872;25.314;2024-02-21T04:43:58;97608.03;;;2.62;98.25
42771;BME280;28426;42.872;25.314;2024-02-21T04:46:31;97614.13;;;2.63;98.13
42771;BME280;28426;42.872;25.314;2024-02-21T04:49:02;97615.78;;;2.64;98.28
42771;BME280;28426;42.872;25.314;2024-02-21T04:51:32;97616.88;;;2.61;98.03
42771;BME280;28426;42.872;25.314;2024-02-21T04:54:04;97609.81;;;2.61;97.83
42771;BME280;28426;42.872;25.314;2024-02-21T04:56:37;97612.47;;;2.61;97.89
42771;BME280;28426;42.872;25.314;2024-02-21T04:59:07;97612.56;;;2.60;97.80
42771;BME280;28426;42.872;25.314;2024-02-21T05:01:38;97606.59;;;2.58;97.74
42771;BME280;28426;42.872;25.314;2024-02-21T05:04:09;97611.03;;;2.57;97.69
42771;BME280;28426;42.872;25.314;2024-02-21T05:06:40;97609.34;;;2.56;97.62
42771;BME280;28426;42.872;25.314;2024-02-21T05:09:10;97620.72;;;2.57;97.89
42771;BME280;28426;42.872;25.314;2024-02-21T05:11:44;97623.34;;;2.57;97.62
42771;BME280;28426;42.872;25.314;2024-02-21T05:14:15;97619.03;;;2.56;97.54
42771;BME280;28426;42.872;25.314;2024-02-21T05:16:45;97616.41;;;2.56;97.62
42771;BME280;28426;42.872;25.314;2024-02-21T05:19:16;97613.88;;;2.54;97.77
42771;BME280;28426;42.872;25.314;2024-02-21T05:21:47;97625.28;;;2.55;97.40
42771;BME280;28426;42.872;25.314;2024-02-21T05:24:17;97627.22;;;2.53;97.43
42771;BME280;28426;42.872;25.314;2024-02-21T05:26:51;97629.69;;;2.54;97.35
42771;BME280;28426;42.872;25.314;2024-02-21T05:29:21;97633.41;;;2.52;97.54
42771;BME280;28426;42.872;25.314;2024-02-21T05:31:56;97647.44;;;2.52;97.20
42771;BME280;28426;42.872;25.314;2024-02-21T05:34:27;97633.41;;;2.52;97.45
42771;BME280;28426;42.872;25.314;2024-02-21T05:36:58;97637.00;;;2.51;97.33
42771;BME280;28426;42.872;25.314;2024-02-21T05:39:29;97643.13;;;2.51;97.34
42771;BME280;28426;42.872;25.314;2024-02-21T05:42:02;97649.22;;;2.52;97.44
42771;BME280;28426;42.872;25.314;2024-02-21T05:44:33;97649.22;;;2.52;97.10
42771;BME280;28426;42.872;25.314;2024-02-21T05:47:04;97653.56;;;2.53;97.30
42771;BME280;28426;42.872;25.314;2024-02-21T05:49:37;97657.84;;;2.54;97.31
42771;BME280;28426;42.872;25.314;2024-02-21T05:52:08;97671.72;;;2.56;97.60
42771;BME280;28426;42.872;25.314;2024-02-21T05:54:38;97660.13;;;2.58;97.50
42771;BME280;28426;42.872;25.314;2024-02-21T05:57:12;97659.19;;;2.59;97.43
42771;BME280;28426;42.872;25.314;2024-02-21T05:59:43;97661.56;;;2.63;97.41
42771;BME280;28426;42.872;25.314;2024-02-21T06:02:13;97663.22;;;2.64;97.16
42771;BME280;28426;42.872;25.314;2024-02-21T06:04:44;97672.72;;;2.66;97.40
42771;BME280;28426;42.872;25.314;2024-02-21T06:07:14;97669.69;;;2.71;97.46
42771;BME280;28426;42.872;25.314;2024-02-21T06:09:45;97668.63;;;2.73;97.20
42771;BME280;28426;42.872;25.314;2024-02-21T06:12:18;97669.19;;;2.77;97.36
42771;BME280;28426;42.872;25.314;2024-02-21T06:14:49;97675.78;;;2.83;97.23
42771;BME280;28426;42.872;25.314;2024-02-21T06:17:20;97669.31;;;2.87;97.14
42771;BME280;28426;42.872;25.314;2024-02-21T06:19:51;97669.91;;;2.91;96.87
42771;BME280;28426;42.872;25.314;2024-02-21T06:22:21;97675.66;;;2.96;97.07
42771;BME280;28426;42.872;25.314;2024-02-21T06:24:52;97670.75;;;3.03;97.23
42771;BME280;28426;42.872;25.314;2024-02-21T06:27:25;97670.94;;;3.11;97.15
42771;BME280;28426;42.872;25.314;2024-02-21T06:29:56;97682.44;;;3.21;97.21
42771;BME280;28426;42.872;25.314;2024-02-21T06:32:27;97685.03;;;3.33;97.43
42771;BME280;28426;42.872;25.314;2024-02-21T06:34:57;97684.75;;;3.47;97.55
42771;BME280;28426;42.872;25.314;2024-02-21T06:37:29;97678.34;;;3.61;97.34
42771;BME280;28426;42.872;25.314;2024-02-21T06:40:00;97691.50;;;3.73;96.80
42771;BME280;28426;42.872;25.314;2024-02-21T06:42:34;97687.25;;;3.82;96.17
42771;BME280;28426;42.872;25.314;2024-02-21T06:45:05;97686.03;;;3.86;95.30
42771;BME280;28426;42.872;25.314;2024-02-21T06:47:37;97689.13;;;3.91;94.88
42771;BME280;28426;42.872;25.314;2024-02-21T06:50:08;97682.88;;;3.92;94.36
42771;BME280;28426;42.872;25.314;2024-02-21T06:52:39;97691.63;;;3.92;93.87
42771;BME280;28426;42.872;25.314;2024-02-21T06:55:10;97687.22;;;3.93;93.95
42771;BME280;28426;42.872;25.314;2024-02-21T06:57:43;97681.19;;;3.91;93.77
42771;BME280;28426;42.872;25.314;2024-02-21T07:00:17;97682.16;;;3.90;93.06
42771;BME280;28426;42.872;25.314;2024-02-21T07:02:50;97686.59;;;3.89;93.15
42771;BME280;28426;42.872;25.314;2024-02-21T07:05:21;97681.31;;;3.89;93.65
42771;BME280;28426;42.872;25.314;2024-02-21T07:07:51;97677.59;;;3.92;93.60
42771;BME280;28426;42.872;25.314;2024-02-21T07:10:22;97685.06;;;4.08;94.85
42771;BME280;28426;42.872;25.314;2024-02-21T07:12:55;97681.88;;;4.36;95.87
42771;BME280;28426;42.872;25.314;2024-02-21T07:15:26;97685.09;;;4.70;96.56
42771;BME280;28426;42.872;25.314;2024-02-21T07:17:58;97681.34;;;5.14;96.61
42771;BME280;28426;42.872;25.314;2024-02-21T07:20:29;97680.69;;;5.61;96.67
42771;BME280;28426;42.872;25.314;2024-02-21T07:23:01;97676.91;;;6.13;96.86
42771;BME280;28426;42.872;25.314;2024-02-21T07:25:31;97682.31;;;6.70;96.91
42771;BME280;28426;42.872;25.314;2024-02-21T07:28:05;97674.50;;;7.24;94.10
42771;BME280;28426;42.872;25.314;2024-02-21T07:30:35;97676.66;;;7.75;93.10
42771;BME280;28426;42.872;25.314;2024-02-21T07:33:06;97669.34;;;8.22;90.74
42771;BME280;28426;42.872;25.314;2024-02-21T07:35:37;97673.16;;;8.72;90.15
42771;BME280;28426;42.872;25.314;2024-02-21T07:38:08;97667.19;;;9.22;89.27
42771;BME280;28426;42.872;25.314;2024-02-21T07:40:40;97663.44;;;9.66;85.99
42771;BME280;28426;42.872;25.314;2024-02-21T07:43:14;97672.44;;;10.06;85.65
42771;BME280;28426;42.872;25.314;2024-02-21T07:45:45;97657.59;;;10.45;83.22
42771;BME280;28426;42.872;25.314;2024-02-21T07:48:15;97666.81;;;10.83;81.55
42771;BME280;28426;42.872;25.314;2024-02-21T07:50:46;97656.47;;;11.20;81.04
42771;BME280;28426;42.872;25.314;2024-02-21T07:53:16;97654.88;;;11.57;79.01
42771;BME280;28426;42.872;25.314;2024-02-21T07:55:47;97652.16;;;11.89;76.81
42771;BME280;28426;42.872;25.314;2024-02-21T07:58:20;97651.78;;;12.15;74.77
42771;BME280;28426;42.872;25.314;2024-02-21T08:00:51;97648.41;;;12.37;74.70
42771;BME280;28426;42.872;25.314;2024-02-21T08:03:21;97652.84;;;12.60;73.83
42771;BME280;28426;42.872;25.314;2024-02-21T08:05:53;97655.25;;;12.85;72.67
42771;BME280;28426;42.872;25.314;2024-02-21T08:08:24;97651.78;;;13.06;69.81
42771;BME280;28426;42.872;25.314;2024-02-21T08:10:54;97657.75;;;13.23;69.55
42771;BME280;28426;42.872;25.314;2024-02-21T08:13:27;97652.25;;;13.46;68.96
42771;BME280;28426;42.872;25.314;2024-02-21T08:15:58;97646.47;;;13.65;67.90
42771;BME280;28426;42.872;25.314;2024-02-21T08:18:29;97655.84;;;13.76;64.85
42771;BME280;28426;42.872;25.314;2024-02-21T08:21:03;97653.50;;;13.66;62.20
42771;BME280;28426;42.872;25.314;2024-02-21T08:23:34;97648.38;;;13.49;62.00
42771;BME280;28426;42.872;25.314;2024-02-21T08:26:05;97646.44;;;13.43;61.87
42771;BME280;28426;42.872;25.314;2024-02-21T08:28:38;97646.63;;;13.41;62.13
42771;BME280;28426;42.872;25.314;2024-02-21T08:31:09;97645.53;;;13.51;62.37
42771;BME280;28426;42.872;25.314;2024-02-21T08:33:39;97642.84;;;13.51;60.95
42771;BME280;28426;42.872;25.314;2024-02-21T08:36:17;97654.66;;;13.41;59.51
42771;BME280;28426;42.872;25.314;2024-02-21T08:38:45;97653.03;;;13.40;58.66
42771;BME280;28426;42.872;25.314;2024-02-21T08:41:16;97650.81;;;13.29;58.38
42771;BME280;28426;42.872;25.314;2024-02-21T08:43:50;97647.63;;;13.18;57.45
42771;BME280;28426;42.872;25.314;2024-02-21T08:46:21;97637.84;;;13.11;56.76
42771;BME280;28426;42.872;25.314;2024-02-21T08:48:52;97641.06;;;13.06;57.09
42771;BME280;28426;42.872;25.314;2024-02-21T08:51:22;97652.16;;;13.03;57.46
42771;BME280;28426;42.872;25.314;2024-02-21T08:53:54;97650.31;;;13.03;57.09
42771;BME280;28426;42.872;25.314;2024-02-21T08:56:25;97645.22;;;13.08;57.25
42771;BME280;28426;42.872;25.314;2024-02-21T08:58:58;97640.78;;;13.16;56.86
42771;BME280;28426;42.872;25.314;2024-02-21T09:01:29;97641.88;;;13.21;55.51
42771;BME280;28426;42.872;25.314;2024-02-21T09:04:02;97642.88;;;13.20;54.80
42771;BME280;28426;42.872;25.314;2024-02-21T09:06:33;97642.88;;;13.20;55.34
42771;BME280;28426;42.872;25.314;2024-02-21T09:09:06;97652.03;;;13.26;54.61
42771;BME280;28426;42.872;25.314;2024-02-21T09:11:37;97638.44;;;13.28;54.89
42771;BME280;28426;42.872;25.314;2024-02-21T09:14:11;97641.19;;;13.34;54.84
42771;BME280;28426;42.872;25.314;2024-02-21T09:16:42;97642.91;;;13.42;55.20
42771;BME280;28426;42.872;25.314;2024-02-21T09:19:12;97653.56;;;13.51;54.17
42771;BME280;28426;42.872;25.314;2024-02-21T09:21:43;97651.50;;;13.53;54.10
42771;BME280;28426;42.872;25.314;2024-02-21T09:24:14;97650.69;;;13.52;52.34
42771;BME280;28426;42.872;25.314;2024-02-21T09:26:45;97650.59;;;13.45;53.21
42771;BME280;28426;42.872;25.314;2024-02-21T09:29:18;97645.53;;;13.36;52.85
42771;BME280;28426;42.872;25.314;2024-02-21T09:31:53;97645.28;;;13.30;52.83
42771;BME280;28426;42.872;25.314;2024-02-21T09:34:24;97646.47;;;13.28;52.93
42771;BME280;28426;42.872;25.314;2024-02-21T09:36:55;97638.81;;;13.25;52.04
42771;BME280;28426;42.872;25.314;2024-02-21T09:39:26;97644.94;;;13.18;52.04
42771;BME280;28426;42.872;25.314;2024-02-21T09:42:01;97648.56;;;13.11;51.98
42771;BME280;28426;42.872;25.314;2024-02-21T09:44:37;97637.78;;;13.04;51.83
42771;BME280;28426;42.872;25.314;2024-02-21T09:47:10;97638.88;;;12.94;51.75
42771;BME280;28426;42.872;25.314;2024-02-21T09:49:43;97643.94;;;12.89;51.92
42771;BME280;28426;42.872;25.314;2024-02-21T09:52:15;97636.22;;;12.79;52.14
42771;BME280;28426;42.872;25.314;2024-02-21T09:54:47;97627.44;;;12.71;51.77
42771;BME280;28426;42.872;25.314;2024-02-21T09:57:20;97639.63;;;12.58;51.87
42771;BME280;28426;42.872;25.314;2024-02-21T09:59:55;97625.97;;;12.53;51.75
42771;BME280;28426;42.872;25.314;2024-02-21T10:02:26;97625.88;;;12.46;52.02
42771;BME280;28426;42.872;25.314;2024-02-21T10:04:57;97620.81;;;12.36;52.04
42771;BME280;28426;42.872;25.314;2024-02-21T10:07:28;97616.84;;;12.32;52.43
42771;BME280;28426;42.872;25.314;2024-02-21T10:10:03;97608.44;;;12.35;53.41
42771;BME280;28426;42.872;25.314;2024-02-21T10:12:34;97605.56;;;12.37;51.71
42771;BME280;28426;42.872;25.314;2024-02-21T10:15:08;97598.94;;;12.33;51.33
42771;BME280;28426;42.872;25.314;2024-02-21T10:17:38;97597.19;;;12.25;51.93
42771;BME280;28426;42.872;25.314;2024-02-21T10:20:10;97589.22;;;12.16;51.19
42771;BME280;28426;42.872;25.314;2024-02-21T10:22:42;97592.81;;;12.09;50.87
42771;BME280;28426;42.872;25.314;2024-02-21T10:25:13;97596.34;;;12.09;51.74
42771;BME280;28426;42.872;25.314;2024-02-21T10:27:43;97583.97;;;12.08;51.34
42771;BME280;28426;42.872;25.314;2024-02-21T10:30:17;97588.78;;;12.13;51.27
42771;BME280;28426;42.872;25.314;2024-02-21T10:32:51;97584.06;;;12.15;50.74
42771;BME280;28426;42.872;25.314;2024-02-21T10:35:28;97576.88;;;12.15;50.87
42771;BME280;28426;42.872;25.314;2024-02-21T10:38:00;97580.56;;;12.14;51.15
42771;BME280;28426;42.872;25.314;2024-02-21T10:40:31;97574.28;;;12.07;50.56
42771;BME280;28426;42.872;25.314;2024-02-21T10:43:01;97570.00;;;11.98;50.08
42771;BME280;28426;42.872;25.314;2024-02-21T10:45:36;97559.84;;;11.93;50.80
42771;BME280;28426;42.872;25.314;2024-02-21T10:48:11;97556.69;;;11.89;51.55
42771;BME280;28426;42.872;25.314;2024-02-21T10:50:52;97552.72;;;11.85;50.87
42771;BME280;28426;42.872;25.314;2024-02-21T10:53:35;97545.44;;;11.79;51.75
42771;BME280;28426;42.872;25.314;2024-02-21T10:56:13;97545.16;;;11.74;51.44
42771;BME280;28426;42.872;25.314;2024-02-21T10:58:46;97538.88;;;11.67;51.21
42771;BME280;28426;42.872;25.314;2024-02-21T11:01:21;97518.03;;;11.62;51.75
42771;BME280;28426;42.872;25.314;2024-02-21T11:03:56;97528.56;;;11.78;51.82
42771;BME280;28426;42.872;25.314;2024-02-21T11:06:28;97524.06;;;11.79;50.16
42771;BME280;28426;42.872;25.314;2024-02-21T11:09:03;97529.75;;;11.76;50.74
42771;BME280;28426;42.872;25.314;2024-02-21T11:11:35;97526.44;;;11.74;51.06
42771;BME280;28426;42.872;25.314;2024-02-21T11:14:08;97527.53;;;11.80;51.42
42771;BME280;28426;42.872;25.314;2024-02-21T11:16:42;97515.84;;;11.81;50.67
42771;BME280;28426;42.872;25.314;2024-02-21T11:19:20;97527.38;;;11.81;51.01
42771;BME280;28426;42.872;25.314;2024-02-21T11:21:52;97521.66;;;11.84;51.46
42771;BME280;28426;42.872;25.314;2024-02-21T11:24:28;97522.97;;;11.88;50.86
42771;BME280;28426;42.872;25.314;2024-02-21T11:27:08;97515.56;;;11.90;49.98
42771;BME280;28426;42.872;25.314;2024-02-21T11:29:43;97522.13;;;11.88;49.37
42771;BME280;28426;42.872;25.314;2024-02-21T11:32:17;97521.66;;;11.84;50.00
42771;BME280;28426;42.872;25.314;2024-02-21T11:34:56;97519.63;;;11.86;50.63
42771;BME280;28426;42.872;25.314;2024-02-21T11:37:32;97513.09;;;11.89;50.47
42771;BME280;28426;42.872;25.314;2024-02-21T11:40:05;97507.53;;;11.90;50.70
42771;BME280;28426;42.872;25.314;2024-02-21T11:42:39;97515.66;;;11.97;50.57
42771;BME280;28426;42.872;25.314;2024-02-21T11:45:10;97514.09;;;12.03;50.28
42771;BME280;28426;42.872;25.314;2024-02-21T11:47:43;97507.22;;;12.09;49.98
42771;BME280;28426;42.872;25.314;2024-02-21T11:50:14;97506.66;;;12.13;50.05
42771;BME280;28426;42.872;25.314;2024-02-21T11:52:48;97501.78;;;12.17;49.75
42771;BME280;28426;42.872;25.314;2024-02-21T11:55:19;97495.22;;;12.20;50.11
42771;BME280;28426;42.872;25.314;2024-02-21T11:57:49;97498.34;;;12.23;49.45
42771;BME280;28426;42.872;25.314;2024-02-21T12:00:21;97495.88;;;12.22;48.46
42771;BME280;28426;42.872;25.314;2024-02-21T12:02:54;97499.56;;;12.21;48.15
42771;BME280;28426;42.872;25.314;2024-02-21T12:05:30;97491.28;;;12.15;47.79
42771;BME280;28426;42.872;25.314;2024-02-21T12:08:01;97490.34;;;12.08;47.99
42771;BME280;28426;42.872;25.314;2024-02-21T12:10:32;97491.06;;;12.02;48.10
42771;BME280;28426;42.872;25.314;2024-02-21T12:13:07;97492.44;;;11.98;48.36
42771;BME280;28426;42.872;25.314;2024-02-21T12:15:38;97479.44;;;11.95;48.30
42771;BME280;28426;42.872;25.314;2024-02-21T12:18:12;97484.31;;;11.91;48.16
42771;BME280;28426;42.872;25.314;2024-02-21T12:20:43;97480.16;;;11.88;47.94
42771;BME280;28426;42.872;25.314;2024-02-21T12:23:14;97489.56;;;11.84;47.67
42771;BME280;28426;42.872;25.314;2024-02-21T12:25:45;97481.28;;;11.79;48.11
42771;BME280;28426;42.872;25.314;2024-02-21T12:28:16;97474.47;;;11.76;48.30
42771;BME280;28426;42.872;25.314;2024-02-21T12:30:47;97471.13;;;11.74;48.67
42771;BME280;28426;42.872;25.314;2024-02-21T12:33:21;97469.28;;;11.75;48.85
42771;BME280;28426;42.872;25.314;2024-02-21T12:35:52;97468.94;;;11.78;48.93
42771;BME280;28426;42.872;25.314;2024-02-21T12:38:23;97465.88;;;11.81;48.88
42771;BME280;28426;42.872;25.314;2024-02-21T12:40:53;97462.84;;;11.84;48.73
42771;BME280;28426;42.872;25.314;2024-02-21T12:43:24;97470.50;;;11.87;48.98
42771;BME280;28426;42.872;25.314;2024-02-21T12:45:55;97467.44;;;11.90;49.25
42771;BME280;28426;42.872;25.314;2024-02-21T12:48:28;97467.72;;;11.96;49.06
42771;BME280;28426;42.872;25.314;2024-02-21T12:50:59;97456.81;;;11.97;48.50
42771;BME280;28426;42.872;25.314;2024-02-21T12:53:30;97457.31;;;12.01;48.57
42771;BME280;28426;42.872;25.314;2024-02-21T12:56:01;97452.59;;;12.03;48.63
42771;BME280;28426;42.872;25.314;2024-02-21T12:58:33;97460.28;;;12.06;48.94
42771;BME280;28426;42.872;25.314;2024-02-21T13:01:03;97449.22;;;12.09;49.00
42771;BME280;28426;42.872;25.314;2024-02-21T13:03:37;97447.34;;;12.10;48.99
42771;BME280;28426;42.872;25.314;2024-02-21T13:06:08;97446.16;;;12.12;48.55
42771;BME280;28426;42.872;25.314;2024-02-21T13:08:38;97446.81;;;12.14;48.83
42771;BME280;28426;42.872;25.314;2024-02-21T13:11:09;97442.44;;;12.13;48.72
42771;BME280;28426;42.872;25.314;2024-02-21T13:13:40;97444.13;;;12.14;48.58
42771;BME280;28426;42.872;25.314;2024-02-21T13:16:11;97445.97;;;12.14;48.47